Time;durP1;ratioP1;P1;durP2;ratioP2;P2;SDS_P1;SDS_P2;PMS_P1;PMS_P2;Temp;Humidity;BMP_temperature;BMP_pressure;BME280_temperature;BME280_humidity;BME280_pressure;Samples;Min_cycle;Max_cycle;Signal;HPM_P1;HPM_P2
2023/10/17 00:01:33;;;;;;;3.93;2.50;;;;;;;;;;6220503;28;20282;-63
2023/10/17 00:04:35;;;;;;;7.27;2.83;;;;;;;;;;6213624;28;20280;-63
2023/10/17 00:07:36;;;;;;;2.97;2.40;;;;;;;;;;6212037;28;20183;-63
2023/10/17 00:10:41;;;;;;;3.60;2.60;;;;;;;;;;6226149;28;20372;-63
2023/10/17 00:13:52;;;;;;;4.70;3.10;;;;;;;;;;6220760;28;20197;-63
2023/10/17 00:16:55;;;;;;;3.90;2.43;;;;;;;;;;6202430;28;20183;-63
2023/10/17 00:19:56;;;;;;;3.73;2.70;;;;;;;;;;6205962;28;20199;-63
2023/10/17 00:22:58;;;;;;;2.90;2.20;;;;;;;;;;6217634;28;20201;-63
2023/10/17 00:26:03;;;;;;;3.63;2.13;;;5.40;83.60;;;;;;6204049;28;20246;-63
2023/10/17 00:29:05;;;;;;;3.57;2.40;;;4.10;85.50;;;;;;6221873;28;20250;-62
2023/10/17 00:32:09;;;;;;;2.80;2.23;;;4.20;84.90;;;;;;6205753;28;20249;-63
2023/10/17 00:35:18;;;;;;;3.70;2.40;;;4.20;85.60;;;;;;6204860;28;20229;-63
2023/10/17 00:38:19;;;;;;;3.63;2.20;;;4.30;84.90;;;;;;6204916;28;20192;-62
2023/10/17 00:41:34;;;;;;;2.53;2.23;;;4.30;84.80;;;;;;6201138;28;20213;-63
2023/10/17 00:44:39;;;;;;;2.53;2.30;;;4.30;84.10;;;;;;6211855;28;20285;-63
2023/10/17 00:47:42;;;;;;;4.03;2.40;;;4.40;84.30;;;;;;6211840;28;20223;-62
2023/10/17 00:50:44;;;;;;;3.53;2.00;;;4.30;84.10;;;;;;6190759;28;20219;-62
2023/10/17 00:53:46;;;;;;;3.17;2.20;;;4.30;84.30;;;;;;6220575;28;20190;-62
2023/10/17 00:56:47;;;;;;;2.60;2.33;;;4.30;84.30;;;;;;6238007;28;20186;-63
2023/10/17 00:59:53;;;;;;;4.43;2.17;;;4.30;84.20;;;;;;6199751;28;20197;-63
2023/10/17 01:03:01;;;;;;;2.50;2.20;;;4.20;84.30;;;;;;6211510;28;20209;-62
2023/10/17 01:06:13;;;;;;;3.07;2.47;;;4.20;84.60;;;;;;6202001;28;20286;-63
2023/10/17 01:09:17;;;;;;;4.40;2.53;;;4.20;84.90;;;;;;6199608;28;20215;-63
2023/10/17 01:12:20;;;;;;;3.27;2.20;;;4.30;84.90;;;;;;6208568;28;20190;-63
2023/10/17 01:15:27;;;;;;;2.13;1.90;;;4.20;84.00;;;;;;6201393;28;20199;-63
2023/10/17 01:18:31;;;;;;;6.27;2.40;;;4.20;84.20;;;;;;6220240;28;20265;-63
2023/10/17 01:21:31;;;;;;;2.30;2.10;;;4.10;84.70;;;;;;6208393;28;20198;-62
2023/10/17 01:24:33;;;;;;;2.40;2.20;;;4.10;85.10;;;;;;6191462;28;20246;-63
2023/10/17 01:27:34;;;;;;;2.50;2.30;;;4.10;85.30;;;;;;6193428;28;20205;-63
2023/10/17 01:30:34;;;;;;;2.77;2.23;;;4.20;85.30;;;;;;6198100;28;20202;-63
2023/10/17 01:33:35;;;;;;;2.13;1.93;;;4.20;85.30;;;;;;6214538;28;20182;-63
2023/10/17 01:36:36;;;;;;;2.30;2.10;;;4.20;85.00;;;;;;6184086;28;20208;-63
2023/10/17 01:39:37;;;;;;;3.13;2.23;;;4.20;85.50;;;;;;6213812;28;20194;-62
2023/10/17 01:42:38;;;;;;;3.47;2.30;;;4.20;85.40;;;;;;6212625;28;20278;-62
2023/10/17 01:45:42;;;;;;;2.73;2.10;;;4.20;85.60;;;;;;6197990;28;20194;-62
2023/10/17 01:48:49;;;;;;;3.03;2.20;;;4.20;85.70;;;;;;6213437;28;20209;-62
2023/10/17 01:51:50;;;;;;;2.60;2.10;;;4.30;85.70;;;;;;6185532;28;20187;-63
2023/10/17 01:54:52;;;;;;;3.00;1.90;;;4.30;86.00;;;;;;6192786;28;20229;-63
2023/10/17 01:57:57;;;;;;;4.00;2.17;;;4.30;85.70;;;;;;6199820;28;20236;-63
2023/10/17 02:00:57;;;;;;;2.97;2.30;;;4.30;85.50;;;;;;6193971;28;20190;-63
2023/10/17 02:04:03;;;;;;;3.37;2.23;;;4.40;85.70;;;;;;6190827;28;20198;-62
2023/10/17 02:07:04;;;;;;;3.00;2.23;;;4.40;85.50;;;;;;6232660;28;20191;-62
2023/10/17 02:10:07;;;;;;;3.33;2.43;;;4.40;85.30;;;;;;6199756;28;20210;-63
2023/10/17 02:13:08;;;;;;;2.77;2.13;;;4.30;85.40;;;;;;6213159;28;20201;-63
2023/10/17 02:16:12;;;;;;;3.03;2.53;;;4.30;85.40;;;;;;6203852;28;20198;-62
2023/10/17 02:19:13;;;;;;;2.73;2.00;;;4.40;85.40;;;;;;6196598;28;20190;-62
2023/10/17 02:22:16;;;;;;;3.37;2.30;;;4.30;85.00;;;;;;6194135;28;20191;-62
2023/10/17 02:25:21;;;;;;;3.30;2.33;;;4.30;85.00;;;;;;6191584;28;20249;-63
2023/10/17 02:28:22;;;;;;;3.60;2.43;;;4.20;85.40;;;;;;6189895;28;20203;-63
2023/10/17 02:31:29;;;;;;;3.07;2.40;;;4.20;85.90;;;;;;6194410;28;20218;-62
2023/10/17 02:34:30;;;;;;;2.30;1.97;;;4.20;85.30;;;;;;6188188;28;20203;-63
2023/10/17 02:37:31;;;;;;;3.87;2.43;;;4.20;85.20;;;;;;6194413;28;20194;-63
2023/10/17 02:40:38;;;;;;;2.73;2.37;;;4.20;85.40;;;;;;6197600;28;20198;-63
2023/10/17 02:43:40;;;;;;;2.90;2.50;;;4.20;85.40;;;;;;6188709;28;20205;-63
2023/10/17 02:46:41;;;;;;;5.03;2.80;;;4.20;85.20;;;;;;6209625;28;20205;-63
2023/10/17 02:49:43;;;;;;;3.43;2.60;;;4.20;85.80;;;;;;6189244;28;20219;-62
2023/10/17 02:52:47;;;;;;;3.87;2.70;;;4.20;85.80;;;;;;6186209;28;20261;-62
2023/10/17 02:55:48;;;;;;;8.03;2.53;;;4.30;86.10;;;;;;6191826;28;20189;-62
2023/10/17 02:59:04;;;;;;;3.27;2.33;;;4.30;85.60;;;;;;6201522;28;20247;-63
2023/10/17 03:02:06;;;;;;;2.63;2.43;;;4.40;85.50;;;;;;6227616;28;20194;-63
2023/10/17 03:05:11;;;;;;;2.87;2.27;;;4.40;85.30;;;;;;6202535;28;20189;-64
2023/10/17 03:08:15;;;;;;;3.43;2.50;;;4.40;85.50;;;;;;6212166;28;20191;-64
2023/10/17 03:11:17;;;;;;;3.57;2.63;;;4.30;85.20;;;;;;6204556;28;20249;-63
2023/10/17 03:14:25;;;;;;;2.90;2.47;;;4.20;85.40;;;;;;6223848;28;20273;-63
2023/10/17 03:17:26;;;;;;;4.53;2.50;;;4.20;85.50;;;;;;6242285;28;20187;-62
2023/10/17 03:20:36;;;;;;;4.23;2.40;;;4.20;85.00;;;;;;6210798;28;20217;-62
2023/10/17 03:23:37;;;;;;;2.70;2.50;;;4.20;85.30;;;;;;6219416;28;20202;-62
2023/10/17 03:26:54;;;;;;;4.63;2.33;;;4.20;85.30;;;;;;6206783;28;20226;-62
2023/10/17 03:29:54;;;;;;;4.67;2.53;;;4.20;86.00;;;;;;6208563;28;20223;-62
2023/10/17 03:39:27;;;;;;;3.00;2.50;;;4.20;85.30;;;;;;6221946;28;20196;-62
2023/10/17 03:46:04;;;;;;;5.07;2.60;;;4.10;85.40;;;;;;6232264;28;20294;-62
2023/10/17 03:49:06;;;;;;;3.57;2.20;;;4.10;85.10;;;;;;6202804;28;20219;-62
2023/10/17 03:52:07;;;;;;;3.73;2.50;;;4.00;84.80;;;;;;6200450;28;20198;-62
2023/10/17 03:55:10;;;;;;;2.30;2.10;;;3.90;85.60;;;;;;6214530;28;20221;-62
2023/10/17 04:01:27;;;;;;;3.40;2.80;;;3.90;85.30;;;;;;6220340;28;20209;-62
2023/10/17 04:04:46;;;;;;;3.67;2.93;;;3.90;85.30;;;;;;6212599;28;20190;-62
2023/10/17 04:07:51;;;;;;;3.00;2.43;;;3.90;85.20;;;;;;6206200;28;20289;-62
2023/10/17 04:11:08;;;;;;;4.77;2.87;;;3.90;85.40;;;;;;6193722;28;20214;-65
2023/10/17 04:14:10;;;;;;;3.47;2.37;;;;;;;;;;6190758;28;20206;-62
2023/10/17 04:17:15;;;;;;;5.40;2.50;;;;;;;;;;6219119;28;20262;-62
2023/10/17 04:20:16;;;;;;;4.60;2.50;;;3.90;85.20;;;;;;6219184;28;20199;-62
2023/10/17 04:23:21;;;;;;;3.67;2.63;;;3.60;85.30;;;;;;6187469;28;20233;-62
2023/10/17 04:26:28;;;;;;;2.20;1.83;;;3.60;85.50;;;;;;6193597;28;20277;-62
2023/10/17 04:29:29;;;;;;;3.40;2.13;;;3.50;85.20;;;;;;6206249;28;20223;-61
2023/10/17 04:32:38;;;;;;;3.00;2.50;;;3.50;85.00;;;;;;6198754;28;20282;-61
2023/10/17 04:35:46;;;;;;;3.97;2.30;;;3.50;85.00;;;;;;6195185;28;20207;-61
2023/10/17 04:38:56;;;;;;;3.43;2.90;;;3.50;85.30;;;;;;6217596;28;20198;-61
2023/10/17 04:45:05;;;;;;;3.40;2.33;;;3.50;85.00;;;;;;6200103;28;20269;-62
2023/10/17 04:48:12;;;;;;;3.60;2.37;;;3.40;85.30;;;;;;6197702;28;20188;-62
2023/10/17 04:57:40;;;;;;;5.43;2.50;;;3.30;85.30;;;;;;6216573;28;20254;-62
2023/10/17 05:03:50;;;;;;;2.50;2.30;;;3.30;85.50;;;;;;6205155;28;20202;-62
2023/10/17 06:19:47;;;;;;;3.43;2.80;;;;;;;;;;6234737;28;20195;-62
2023/10/17 06:26:46;;;;;;;5.67;3.57;;;;;;;;;;6217349;28;20235;-62
2023/10/17 06:35:44;;;;;;;6.80;3.83;;;;;;;;;;6223256;28;20249;-62
2023/10/17 06:38:46;;;;;;;7.23;4.70;;;;;;;;;;6228709;28;20180;-62
2023/10/17 06:41:49;;;;;;;9.47;5.20;;;;;;;;;;6210969;28;20272;-62
2023/10/17 06:45:07;;;;;;;5.20;3.60;;;;;;;;;;6225786;28;20199;-62
2023/10/17 06:48:08;;;;;;;5.97;3.63;;;;;;;;;;6206040;28;20201;-62
2023/10/17 06:54:24;;;;;;;9.20;4.40;;;;;;;;;;6217081;28;20187;-62
2023/10/17 06:57:33;;;;;;;6.93;4.47;;;;;;;;;;6212869;28;20185;-62
2023/10/17 07:00:50;;;;;;;6.60;3.90;;;;;;;;;;6231852;28;20241;-62
2023/10/17 07:03:55;;;;;;;5.33;3.80;;;;;;;;;;6226579;28;20199;-62
2023/10/17 07:06:56;;;;;;;7.97;4.60;;;;;;;;;;6230810;28;20182;-62
2023/10/17 07:13:39;;;;;;;7.57;4.60;;;;;;;;;;6219692;28;20183;-62
2023/10/17 07:19:47;;;;;;;10.10;4.80;;;;;;;;;;6232957;28;20194;-62
2023/10/17 07:22:53;;;;;;;7.13;4.77;;;;;;;;;;6204281;28;20214;-62
2023/10/17 07:25:56;;;;;;;10.03;4.93;;;;;;;;;;6208194;28;20272;-62
2023/10/17 07:28:59;;;;;;;7.07;4.30;;;;;;;;;;6200581;28;20208;-62
2023/10/17 07:32:02;;;;;;;8.30;4.53;;;;;;;;;;6218723;28;20198;-62
2023/10/17 07:35:04;;;;;;;11.97;4.53;;;;;;;;;;6230534;28;20183;-62
2023/10/17 07:38:06;;;;;;;13.57;4.37;;;;;;;;;;6199711;28;20187;-61
2023/10/17 07:41:13;;;;;;;8.87;4.40;;;;;;;;;;6202253;28;20286;-62
2023/10/17 07:44:21;;;;;;;7.00;4.90;;;;;;;;;;6205515;28;20304;-62
2023/10/17 07:47:33;;;;;;;8.03;4.33;;;;;;;;;;6212306;28;20209;-62
2023/10/17 07:50:34;;;;;;;8.10;4.80;;;;;;;;;;6207062;28;20210;-62
2023/10/17 07:53:35;;;;;;;6.23;4.00;;;;;;;;;;6215117;28;20192;-62
2023/10/17 07:56:36;;;;;;;7.03;4.67;;;;;;;;;;6211861;28;20191;-62
2023/10/17 07:59:37;;;;;;;5.53;4.23;;;3.30;86.00;;;;;;6211235;28;20225;-62
2023/10/17 08:02:40;;;;;;;8.30;4.83;;;4.90;84.90;;;;;;6193516;28;20202;-62
2023/10/17 08:12:22;;;;;;;7.20;4.07;;;;;;;;;;6205973;28;20229;-62
2023/10/17 08:15:30;;;;;;;6.40;4.10;;;;;;;;;;6203785;28;20190;-62
2023/10/17 08:18:39;;;;;;;5.83;3.93;;;;;;;;;;6213814;28;20248;-62
2023/10/17 08:22:26;;;;;;;5.77;3.53;;;;;;;;;;6210247;28;20322;-62
2023/10/17 08:25:05;;;;;;;5.10;3.73;;;;;;;;;;6217333;28;20234;-62
2023/10/17 08:28:17;;;;;;;4.33;3.60;;;;;;;;;;6232605;28;20191;-62
2023/10/17 08:31:24;;;;;;;5.57;3.77;;;;;;;;;;6216495;28;20217;-62
2023/10/17 08:34:30;;;;;;;8.37;3.53;;;;;;;;;;6227467;28;20241;-61
2023/10/17 08:37:40;;;;;;;5.23;3.50;;;;;;;;;;6217812;28;20183;-62
2023/10/17 08:40:41;;;;;;;6.97;3.70;;;;;;;;;;6212964;28;20241;-62
2023/10/17 08:43:42;;;;;;;7.63;3.57;;;;;;;;;;6196026;28;20198;-62
2023/10/17 08:46:43;;;;;;;7.40;4.03;;;;;;;;;;6220050;28;20194;-62
2023/10/17 08:49:44;;;;;;;5.20;3.13;;;;;;;;;;6211451;28;20229;-62
2023/10/17 08:52:48;;;;;;;6.50;3.50;;;;;;;;;;6210760;28;20189;-62
2023/10/17 08:55:50;;;;;;;4.63;2.90;;;;;;;;;;6231827;28;20183;-62
2023/10/17 08:59:03;;;;;;;6.37;3.33;;;7.10;77.80;;;;;;6214185;28;20183;-62
2023/10/17 09:05:27;;;;;;;4.43;3.37;;;7.40;75.00;;;;;;6253704;28;20183;-62
2023/10/17 09:12:19;;;;;;;4.70;3.33;;;7.60;75.00;;;;;;6228538;28;20211;-62
2023/10/17 09:15:35;;;;;;;4.00;3.00;;;;;;;;;;6206057;28;20184;-62
2023/10/17 09:18:42;;;;;;;3.70;3.23;;;;;;;;;;6205264;28;20306;-62
2023/10/17 09:21:47;;;;;;;5.17;3.60;;;;;;;;;;6211917;28;20194;-62
2023/10/17 09:24:49;;;;;;;4.70;3.47;;;;;;;;;;6204385;28;20333;-62
2023/10/17 09:27:51;;;;;;;5.13;3.47;;;;;;;;;;6208972;28;20569;-62
2023/10/17 09:31:02;;;;;;;6.63;4.13;;;;;;;;;;6232969;28;20217;-62
2023/10/17 09:34:07;;;;;;;4.77;4.20;;;;;;;;;;6210008;28;20183;-62
2023/10/17 09:37:12;;;;;;;5.33;3.57;;;;;;;;;;6212724;28;20191;-62
2023/10/17 09:40:22;;;;;;;7.33;5.00;;;;;;;;;;6219979;28;20201;-62
2023/10/17 09:43:23;;;;;;;6.43;4.13;;;;;;;;;;6231581;28;20198;-62
2023/10/17 09:46:26;;;;;;;7.33;4.33;;;7.60;75.70;;;;;;6205965;28;20206;-62
2023/10/17 09:49:35;;;;;;;5.97;4.67;;;;;;;;;;6219570;28;20284;-62
2023/10/17 09:52:37;;;;;;;6.03;4.80;;;;;;;;;;6223512;28;20191;-62
2023/10/17 09:55:39;;;;;;;11.70;5.13;;;;;;;;;;6230117;28;20193;-62
2023/10/17 09:58:43;;;;;;;8.00;4.63;;;;;;;;;;6227434;28;20190;-62
2023/10/17 10:01:46;;;;;;;5.30;4.40;;;;;;;;;;6228423;28;20254;-63
2023/10/17 10:04:47;;;;;;;5.27;4.20;;;;;;;;;;6211678;28;20206;-62
2023/10/17 10:07:48;;;;;;;7.27;3.93;;;;;;;;;;6228300;28;20273;-62
2023/10/17 10:10:51;;;;;;;4.93;4.07;;;;;;;;;;6204303;28;20305;-62
2023/10/17 10:14:03;;;;;;;4.23;3.80;;;;;;;;;;6208035;28;20191;-63
2023/10/17 10:17:04;;;;;;;6.07;3.93;;;8.80;74.40;;;;;;6237827;28;20191;-62
2023/10/17 10:20:05;;;;;;;4.80;3.90;;;9.60;69.10;;;;;;6190975;28;20201;-62
2023/10/17 10:23:06;;;;;;;5.03;4.10;;;;;;;;;;6190854;28;20280;-63
2023/10/17 10:26:10;;;;;;;10.83;4.63;;;;;;;;;;6204235;28;20269;-63
2023/10/17 10:29:24;;;;;;;6.47;4.43;;;;;;;;;;6231005;28;20198;-63
2023/10/17 10:32:25;;;;;;;4.33;3.90;;;;;;;;;;6232574;28;20183;-63
2023/10/17 10:35:26;;;;;;;7.20;4.67;;;;;;;;;;6222600;28;20182;-63
2023/10/17 10:38:30;;;;;;;5.50;4.03;;;;;;;;;;6206748;28;20194;-63
2023/10/17 10:41:31;;;;;;;4.70;3.70;;;;;;;;;;6204477;28;20207;-63
2023/10/17 10:44:41;;;;;;;4.27;3.17;;;;;;;;;;6204383;28;20186;-63
2023/10/17 10:47:42;;;;;;;7.53;3.60;;;9.70;70.20;;;;;;6220728;28;20242;-63
2023/10/17 10:50:44;;;;;;;4.30;3.53;;;;;;;;;;6190688;28;20262;-62
2023/10/17 10:53:54;;;;;;;2.90;2.60;;;;;;;;;;6222947;28;20210;-63
2023/10/17 10:56:55;;;;;;;5.83;3.13;;;;;;;;;;6220299;28;20193;-63
2023/10/17 10:59:58;;;;;;;3.13;2.60;;;;;;;;;;6206934;28;20191;-62
2023/10/17 11:02:59;;;;;;;3.13;2.37;;;;;;;;;;6213824;28;20217;-62
2023/10/17 11:06:03;;;;;;;3.57;2.43;;;;;;;;;;6227285;28;20186;-63
2023/10/17 11:09:09;;;;;;;9.07;4.17;;;;;;;;;;6212259;28;20190;-62
2023/10/17 11:12:20;;;;;;;2.70;2.50;;;;;;;;;;6210943;28;20286;-62
2023/10/17 11:15:26;;;;;;;4.80;2.10;;;;;;;;;;6222496;28;20184;-62
2023/10/17 11:18:29;;;;;;;3.00;2.10;;;;;;;;;;6215779;28;20214;-62
2023/10/17 11:21:31;;;;;;;2.63;1.83;;;;;;;;;;6231566;28;20196;-62
2023/10/17 11:24:33;;;;;;;7.13;3.63;;;;;;;;;;6212299;28;20337;-61
2023/10/17 11:27:35;;;;;;;3.10;2.40;;;;;;;;;;6224896;28;20226;-61
2023/10/17 11:30:42;;;;;;;5.03;3.30;;;10.60;65.10;;;;;;6208537;28;20214;-61
2023/10/17 11:33:47;;;;;;;4.03;1.93;;;11.70;56.50;;;;;;6223012;28;20187;-62
2023/10/17 11:36:51;;;;;;;4.10;1.57;;;11.50;55.00;;;;;;6218443;28;20282;-64
2023/10/17 11:39:52;;;;;;;4.30;1.70;;;11.60;55.20;;;;;;6219026;28;20195;-63
2023/10/17 11:42:53;;;;;;;2.87;1.33;;;11.70;55.80;;;;;;6193414;28;20225;-62
2023/10/17 11:45:55;;;;;;;2.90;1.70;;;11.80;55.30;;;;;;6207194;28;20191;-62
2023/10/17 11:49:26;;;;;;;1.73;1.57;;;;;;;;;;6209484;28;20198;-62
2023/10/17 11:52:27;;;;;;;3.13;1.50;;;24.00;50.00;;;;;;6233059;28;20245;-62
2023/10/17 11:55:40;;;;;;;1.40;1.30;;;11.90;51.00;;;;;;6195870;28;20206;-62
2023/10/17 11:58:42;;;;;;;1.77;1.57;;;11.90;53.70;;;;;;6230982;28;20195;-62
2023/10/17 12:01:45;;;;;;;2.90;1.87;;;11.90;52.60;;;;;;6195122;28;20205;-62
2023/10/17 12:04:46;;;;;;;1.67;1.57;;;11.90;53.00;;;;;;6196322;28;20219;-62
2023/10/17 12:07:57;;;;;;;6.97;2.97;;;12.10;54.40;;;;;;6193983;28;20193;-62
2023/10/17 12:10:57;;;;;;;3.07;2.00;;;12.20;54.30;;;;;;6235263;28;20216;-62
2023/10/17 12:13:58;;;;;;;2.53;1.93;;;12.30;54.10;;;;;;6191422;28;20187;-62
2023/10/17 12:17:00;;;;;;;2.27;1.93;;;;;;;;;;6196235;28;20282;-62
2023/10/17 12:20:09;;;;;;;3.50;2.03;;;;;;;;;;6231661;28;20191;-62
2023/10/17 12:23:11;;;;;;;3.70;2.00;;;;;;;;;;6218149;28;20195;-62
2023/10/17 12:26:17;;;;;;;2.13;1.80;;;;;;;;;;6205184;28;20244;-62
2023/10/17 12:29:19;;;;;;;2.57;1.90;;;;;;;;;;6232024;28;20268;-62
2023/10/17 12:32:21;;;;;;;5.13;2.30;;;;;;;;;;6211427;28;20196;-62
2023/10/17 12:35:22;;;;;;;2.57;1.80;;;;;;;;;;6220337;28;20221;-62
2023/10/17 12:38:33;;;;;;;2.80;1.87;;;;;;;;;;6216516;28;20216;-62
2023/10/17 12:41:35;;;;;;;2.37;1.93;;;;;;;;;;6211335;28;20210;-62
2023/10/17 12:44:36;;;;;;;4.10;2.20;;;;;;;;;;6227195;28;20198;-62
2023/10/17 12:47:38;;;;;;;2.10;1.90;;;;;;;;;;6202426;28;20195;-62
2023/10/17 12:50:45;;;;;;;2.60;2.17;;;;;;;;;;6213602;28;20257;-62
2023/10/17 12:53:47;;;;;;;2.33;1.83;;;12.50;54.20;;;;;;6223053;28;20191;-62
2023/10/17 12:56:48;;;;;;;1.90;1.70;;;;;;;;;;6198965;28;20190;-62
2023/10/17 12:59:49;;;;;;;3.17;1.70;;;;;;;;;;6209379;28;20188;-62
2023/10/17 13:02:52;;;;;;;3.97;1.83;;;;;;;;;;6212061;28;20203;-62
2023/10/17 13:05:53;;;;;;;3.00;1.70;;;12.90;55.40;;;;;;6204943;28;20199;-62
2023/10/17 13:08:56;;;;;;;3.63;1.43;;;14.50;51.70;;;;;;6186424;28;20198;-60
2023/10/17 13:11:57;;;;;;;2.93;1.87;;;15.40;49.00;;;;;;6201945;28;20211;-60
2023/10/17 13:14:59;;;;;;;3.07;1.80;;;15.30;44.90;;;;;;6204610;28;20189;-60
2023/10/17 13:18:03;;;;;;;4.93;1.43;;;;;;;;;;6208545;28;20195;-60
2023/10/17 13:21:12;;;;;;;4.73;1.50;;;;;;;;;;6205356;28;20196;-61
2023/10/17 13:24:16;;;;;;;1.97;1.57;;;24.00;50.00;;;;;;6206608;28;20214;-61
2023/10/17 13:27:17;;;;;;;1.50;1.40;;;;;;;;;;6213172;28;20202;-60
2023/10/17 13:30:19;;;;;;;1.27;1.17;;;;;;;;;;6212288;28;20222;-60
2023/10/17 13:33:21;;;;;;;1.40;1.20;;;;;;;;;;6206451;28;20191;-60
2023/10/17 13:36:22;;;;;;;1.97;1.20;;;;;;;;;;6209368;28;20211;-61
2023/10/17 13:39:24;;;;;;;1.30;1.20;;;;;;;;;;6223387;28;20191;-61
2023/10/17 13:42:27;;;;;;;2.27;1.50;;;;;;;;;;6209391;28;20198;-61
2023/10/17 13:45:29;;;;;;;1.23;1.13;;;;;;;;;;6224643;28;20266;-62
2023/10/17 13:48:30;;;;;;;1.37;1.07;;;;;;;;;;6224344;28;20190;-62
2023/10/17 13:51:34;;;;;;;1.50;1.20;;;;;;;;;;6225314;28;20214;-62
2023/10/17 13:54:37;;;;;;;2.37;0.90;;;17.50;41.60;;;;;;6209019;28;20201;-63
2023/10/17 13:57:42;;;;;;;2.17;1.13;;;16.50;41.90;;;;;;6211537;28;20256;-62
2023/10/17 14:00:43;;;;;;;1.20;1.10;;;16.40;42.30;;;;;;6199587;28;20199;-61
2023/10/17 14:03:44;;;;;;;1.13;0.90;;;16.00;43.20;;;;;;6186357;28;20418;-62
2023/10/17 14:06:45;;;;;;;2.23;1.20;;;;;;;;;;6194723;28;20199;-61
2023/10/17 14:09:46;;;;;;;2.33;1.80;;;;;;;;;;6207102;28;20250;-62
2023/10/17 14:12:47;;;;;;;3.33;1.40;;;;;;;;;;6199751;28;20230;-62
2023/10/17 14:15:51;;;;;;;1.90;1.37;;;;;;;;;;6210643;28;20306;-62
2023/10/17 14:19:03;;;;;;;3.30;1.90;;;;;;;;;;6208753;28;20198;-62
2023/10/17 14:26:00;;;;;;;3.03;1.70;;;14.10;47.10;;;;;;6234572;28;20269;-62
2023/10/17 14:28:35;;;;;;;3.43;1.43;;;13.90;45.80;;;;;;6236378;28;20192;-63
2023/10/17 14:31:36;;;;;;;1.53;1.40;;;13.90;47.50;;;;;;6227440;28;20226;-62
2023/10/17 14:34:37;;;;;;;1.97;1.20;;;13.90;47.70;;;;;;6186400;28;20228;-62
2023/10/17 14:37:39;;;;;;;3.67;1.80;;;13.80;49.80;;;;;;6207448;28;20219;-62
2023/10/17 14:40:42;;;;;;;2.03;1.60;;;13.50;46.80;;;;;;6201261;28;20198;-62
2023/10/17 14:43:46;;;;;;;1.50;1.27;;;13.30;48.40;;;;;;6183074;28;20191;-62
2023/10/17 14:46:47;;;;;;;2.43;1.50;;;13.30;49.30;;;;;;6191821;28;20195;-62
2023/10/17 14:49:48;;;;;;;1.40;1.10;;;13.30;50.10;;;;;;6184074;28;20226;-62
2023/10/17 14:52:49;;;;;;;1.47;1.37;;;;;;;;;;6202971;28;20253;-62
2023/10/17 14:55:59;;;;;;;2.00;1.47;;;;;;;;;;6196229;28;20211;-62
2023/10/17 14:59:00;;;;;;;1.87;1.57;;;;;;;;;;6220186;28;20193;-62
2023/10/17 15:02:02;;;;;;;1.53;1.40;;;;;;;;;;6225124;28;20244;-62
2023/10/17 15:05:03;;;;;;;1.57;1.43;;;;;;;;;;6200558;28;20223;-62
2023/10/17 15:08:05;;;;;;;1.63;1.10;;;;;;;;;;6212405;28;20281;-62
2023/10/17 15:11:06;;;;;;;1.50;1.40;;;;;;;;;;6205508;28;20654;-62
2023/10/17 15:14:08;;;;;;;2.03;1.40;;;;;;;;;;6200968;28;20191;-62
2023/10/17 15:17:12;;;;;;;1.97;1.70;;;;;;;;;;6206358;28;20279;-67
2023/10/17 15:20:14;;;;;;;3.27;1.60;;;13.30;50.80;;;;;;6234447;28;20249;-63
2023/10/17 15:23:15;;;;;;;2.33;1.40;;;12.10;57.20;;;;;;6205568;28;20196;-61
2023/10/17 15:26:16;;;;;;;1.33;1.20;;;;;;;;;;6191263;28;20333;-61
2023/10/17 15:29:17;;;;;;;3.50;1.70;;;;;;;;;;6202973;28;20206;-61
2023/10/17 15:32:17;;;;;;;2.03;1.37;;;12.00;57.50;;;;;;6201798;28;20246;-62
2023/10/17 15:35:19;;;;;;;1.93;1.37;;;;;;;;;;6193662;28;20201;-62
2023/10/17 15:38:23;;;;;;;2.27;1.50;;;;;;;;;;6196437;28;20196;-62
2023/10/17 15:41:24;;;;;;;2.23;1.77;;;11.70;59.60;;;;;;6205434;28;20291;-62
2023/10/17 15:44:25;;;;;;;3.00;1.80;;;11.20;61.80;;;;;;6207378;28;20271;-63
2023/10/17 15:47:26;;;;;;;4.23;2.60;;;;;;;;;;6204759;28;20229;-62
2023/10/17 15:50:27;;;;;;;5.40;3.87;;;11.10;63.10;;;;;;6204731;28;20219;-61
2023/10/17 15:53:32;;;;;;;7.70;5.60;;;10.90;63.90;;;;;;6199689;28;20199;-61
2023/10/17 15:56:33;;;;;;;7.07;5.57;;;10.80;65.60;;;;;;6218603;28;20199;-61
2023/10/17 15:59:34;;;;;;;4.73;3.33;;;10.70;66.50;;;;;;6192736;28;20328;-61
2023/10/17 16:02:36;;;;;;;4.10;3.10;;;;;;;;;;6189712;28;20268;-61
2023/10/17 16:05:37;;;;;;;4.33;3.80;;;;;;;;;;6214862;28;20195;-61
2023/10/17 16:08:40;;;;;;;5.77;4.30;;;;;;;;;;6212152;28;20198;-62
2023/10/17 16:11:45;;;;;;;5.30;4.00;;;;;;;;;;6215101;28;20221;-62
2023/10/17 16:14:48;;;;;;;3.80;2.80;;;;;;;;;;6235771;28;20191;-62
2023/10/17 16:17:50;;;;;;;5.97;3.00;;;;;;;;;;6222716;28;20190;-62
2023/10/17 16:20:51;;;;;;;4.07;2.93;;;;;;;;;;6209320;28;20218;-62
2023/10/17 16:23:52;;;;;;;2.73;2.13;;;;;;;;;;6210467;28;20195;-62
2023/10/17 16:26:53;;;;;;;4.13;2.50;;;;;;;;;;6208185;28;20292;-62
2023/10/17 16:29:57;;;;;;;2.50;2.10;;;;;;;;;;6210536;28;20229;-62
2023/10/17 16:32:58;;;;;;;5.97;2.30;;;;;;;;;;6223334;28;20183;-61
2023/10/17 16:36:03;;;;;;;4.23;2.30;;;;;;;;;;6209665;28;20201;-61
2023/10/17 16:39:04;;;;;;;5.60;2.17;;;;;;;;;;6226981;28;20240;-62
2023/10/17 16:42:05;;;;;;;2.53;1.80;;;;;;;;;;6201483;28;20345;-62
2023/10/17 16:45:07;;;;;;;2.73;1.80;;;;;;;;;;6204582;28;20209;-61
2023/10/17 16:48:08;;;;;;;2.03;1.80;;;;;;;;;;6209594;28;20213;-62
2023/10/17 16:51:10;;;;;;;3.33;1.83;;;;;;;;;;6209890;28;20214;-62
2023/10/17 16:54:11;;;;;;;3.70;2.50;;;;;;;;;;6214740;28;20190;-61
2023/10/17 16:57:13;;;;;;;2.60;2.40;;;;;;;;;;6213693;28;20183;-61
2023/10/17 17:00:16;;;;;;;5.70;2.97;;;;;;;;;;6210430;28;20199;-61
2023/10/17 17:03:20;;;;;;;3.40;2.30;;;;;;;;;;6215767;28;20210;-61
2023/10/17 17:06:21;;;;;;;4.33;2.33;;;;;;;;;;6232593;28;20194;-62
2023/10/17 17:09:22;;;;;;;10.53;3.70;;;;;;;;;;6204234;28;20199;-61
2023/10/17 17:12:25;;;;;;;3.27;2.27;;;;;;;;;;6211960;28;20198;-61
2023/10/17 17:15:28;;;;;;;5.83;3.33;;;;;;;;;;6243490;28;20212;-61
2023/10/17 17:18:33;;;;;;;3.97;2.83;;;;;;;;;;6229046;28;20196;-61
2023/10/17 17:21:35;;;;;;;5.63;3.30;;;;;;;;;;6217201;28;20196;-63
2023/10/17 17:24:40;;;;;;;3.07;2.37;;;;;;;;;;6212689;28;20246;-61
2023/10/17 17:27:42;;;;;;;6.17;3.27;;;;;;;;;;6226108;28;20195;-61
2023/10/17 17:30:49;;;;;;;6.07;3.77;;;;;;;;;;6212045;28;20222;-61
2023/10/17 17:33:52;;;;;;;6.40;4.70;;;;;;;;;;6221635;28;20273;-61
2023/10/17 17:36:54;;;;;;;6.13;5.53;;;;;;;;;;6230888;28;20190;-62
2023/10/17 17:39:55;;;;;;;6.03;5.00;;;;;;;;;;6203885;28;20202;-63
2023/10/17 17:42:57;;;;;;;6.10;5.50;;;;;;;;;;6228671;28;20222;-62
2023/10/17 17:46:04;;;;;;;5.83;4.50;;;;;;;;;;6197093;28;20198;-62
2023/10/17 17:49:06;;;;;;;4.77;4.37;;;;;;;;;;6204561;28;20203;-62
2023/10/17 17:52:08;;;;;;;4.23;3.83;;;;;;;;;;6221032;28;20215;-62
2023/10/17 17:55:09;;;;;;;3.87;3.00;;;;;;;;;;6200432;28;20197;-62
2023/10/17 17:58:13;;;;;;;5.00;3.00;;;;;;;;;;6221515;28;20215;-62
2023/10/17 18:01:16;;;;;;;6.67;2.90;;;;;;;;;;6211727;28;20188;-63
2023/10/17 18:04:18;;;;;;;4.93;3.13;;;;;;;;;;6195794;28;20226;-63
2023/10/17 18:07:20;;;;;;;6.60;3.57;;;;;;;;;;6201296;28;20207;-62
2023/10/17 18:10:22;;;;;;;6.30;4.30;;;;;;;;;;6208371;28;20236;-62
2023/10/17 18:13:23;;;;;;;7.13;4.63;;;;;;;;;;6226131;28;20202;-62
2023/10/17 18:16:26;;;;;;;6.03;4.70;;;;;;;;;;6216621;28;20248;-63
2023/10/17 18:19:28;;;;;;;6.27;5.17;;;;;;;;;;6215139;28;20206;-63
2023/10/17 18:22:29;;;;;;;6.40;4.00;;;;;;;;;;6207721;28;20198;-63
2023/10/17 18:25:37;;;;;;;4.80;4.17;;;;;;;;;;6207455;28;20314;-63
2023/10/17 18:28:40;;;;;;;6.53;4.20;;;;;;;;;;6225912;28;20214;-62
2023/10/17 18:31:42;;;;;;;10.50;5.07;;;;;;;;;;6217002;28;20219;-63
2023/10/17 18:34:45;;;;;;;6.30;5.37;;;;;;;;;;6205931;28;20196;-62
2023/10/17 18:37:47;;;;;;;6.60;5.20;;;;;;;;;;6212532;28;20286;-63
2023/10/17 18:40:48;;;;;;;6.33;4.37;;;;;;;;;;6215292;28;20205;-63
2023/10/17 18:43:50;;;;;;;6.87;5.87;;;;;;;;;;6231230;28;20190;-62
2023/10/17 18:46:51;;;;;;;7.13;5.80;;;;;;;;;;6218270;28;20257;-63
2023/10/17 18:49:53;;;;;;;9.87;6.50;;;;;;;;;;6198362;28;20238;-62
2023/10/17 18:52:54;;;;;;;9.10;6.90;;;;;;;;;;6196384;28;20194;-62
2023/10/17 18:56:09;;;;;;;9.23;6.83;;;;;;;;;;6218256;28;20195;-62
2023/10/17 18:59:10;;;;;;;7.80;6.63;;;;;;;;;;6231158;28;20198;-62
2023/10/17 19:02:12;;;;;;;14.83;11.23;;;;;;;;;;6212883;28;20333;-62
2023/10/17 19:05:13;;;;;;;17.60;12.17;;;;;;;;;;6212787;28;20198;-62
2023/10/17 19:08:14;;;;;;;11.17;8.10;;;;;;;;;;6214987;28;20198;-63
2023/10/17 19:11:15;;;;;;;8.47;7.67;;;;;;;;;;6205059;28;20250;-63
2023/10/17 19:14:16;;;;;;;8.53;7.60;;;;;;;;;;6217194;28;20186;-63
2023/10/17 19:17:18;;;;;;;7.77;6.93;;;;;;;;;;6232097;28;20194;-62
2023/10/17 19:20:19;;;;;;;9.43;6.93;;;;;;;;;;6231388;28;20281;-63
2023/10/17 19:23:20;;;;;;;7.60;6.90;;;;;;;;;;6212693;28;20252;-63
2023/10/17 19:26:22;;;;;;;8.03;7.23;;;;;;;;;;6214045;28;20250;-63
2023/10/17 19:29:23;;;;;;;9.20;8.30;;;;;;;;;;6202621;28;20208;-63
2023/10/17 19:32:24;;;;;;;8.77;7.97;;;;;;;;;;6226883;28;20179;-63
2023/10/17 19:35:26;;;;;;;9.90;8.90;;;;;;;;;;6221678;28;20189;-62
2023/10/17 19:38:27;;;;;;;10.33;9.23;;;;;;;;;;6231901;28;20289;-63